Fisk, Missouri
Current Conditions -  °F | °C
As of 5:53 PM on Sunday 25 Jan 2015 (Local Time) from KPOF Reporting Station
Overcast Overcast  
Wind Chill: 38°   Ceiling: 2800
Heat Index: 45°   Visibility: 10mi
Dew Point: 36°   Wind: 15mph
Humidity: 71%   Direction: 300°WNW
Pressure: 29.76"   Gusts: NA
Location:  36.78°N, 90.21°W
Report Text: KPOF 252353Z AUTO 30013KT 10SM OVC028 07/02 A2976 RMK AO2 SLP081 60026 T00720022 10100 20061 53027
Loading
Personal Weather Stations






























Interactive Weather Map New forecast layout! Learn more

10-Day Weather Forecast

Advertisements
Track Severe Weather on mobile